Terminal Aerodrome Forecast
Issued by NWS

Home | Current Version | Previous Version | Text Only | Print | Product List | Glossary On
Versions: 1 2 3 4 5 6 7 8 9 10 11 12
838
FTUS44 KLZK 230525
TAFHRO
TAF
KHRO 230525Z 2306/2406 20003KT P6SM BKN250
     FM231500 25007KT P6SM SCT040 BKN250
     FM232000 31007KT P6SM BKN050 PROB30 2321/2401 4SM TSRA BR
      OVC035CB
     FM240100 10003KT P6SM BKN250=

USA.gov is the U.S. government's official web portal to all federal, state and local government web resources and services.